aviador You're here:

CYMH Decoded Metar

MARY'S HARBOUR in NL, CANADA
Report Time2017-08-19 14:00:00
UTC Time2017-08-19 14:56:08
Flight Rules vfr VFR
WindVRB at 06 kt
Visibility9999 m
Phenomena:N/A
Clouds:N/A
Expected CloudBase > 1,200 ft AGL from Temp-Dew spread
CeilingNone
Temp12°C (ISA -3)
Dew Point09°C (82% RH)
AAT9.6°C
QNH1019 hPa
Density Alt-361 ft
Elevation36 ft
Report Wrong Elevation
Raw Report
CYMH 191400Z AUTO VRB06KT 9SM CLR 12/09 A3010 RMK SLP193=

Extra information for CYMH:More info

Metar Taf Metar & Taf Last 4 Metars F.Rules Stats Wind Profile Meteogram Temp Stats Airport Information Weather charts Add Link Nearby VenuesMetar ALERT Operation Metar Decoded Social comments